Hartford, Connecticut
Traffic Map
Current Weather Conditions
Hartford, Connecticut
Overcast
Overcast
48°
Feels Like: 43°
Wind Chill: 43° Ceiling: 1600
Heat Index: 48° Visibility: 10mi
Dew Point: 41° Wind: 13mph
Humidity: 77% Direction: 20° (NNE)
Pressure: 29.74in Gusts: 0mph
Raw Report DataKHFD 051153Z 02011KT 10SM OVC016 09/05 A2974 RMK AO2 SLP071 70005 T00890050 10089 20083 53002
Traffic Incident Summary
Active as of:
Severity:
Category:
InformationThere was an issue retrieving the traffic information for this location. Please try a different location or try again shortly.
Advertisements
Track Severe Weather on mobile